New Century, Kansas
Current Conditions -  °F | °C
As of 11:53 PM on Tuesday 25 Nov 2014 (Local Time) from KIXD Reporting Station
Overcast Overcast  
Wind Chill: 29°   Ceiling: 11000
Heat Index: 38°   Visibility: 10mi
Dew Point: 21°   Wind: 16mph
Humidity: 51%   Direction: 170°S
Pressure: 29.97"   Gusts: NA
Location:  38.81°N, 94.93°W
Report Text: KIXD 260553Z AUTO 17014KT 10SM OVC110 03/M06 A2997 RMK AO2 SLP155 T00331061 10039 20006 400611067 58026
Loading
Personal Weather Stations






























Interactive Weather Map New forecast layout! Learn more

10-Day Weather Forecast

Advertisements
Track Severe Weather on mobile